»·PEaware :: ENY3725 CYYZ-KJFK

ENY3725 :: CYYZ-KJFK

FLIGHT INFORMATION

Flight Status: Arrived
Operator: Unknown
More flights by this operator :: More flights under this callsign
Pilot: Anonymous 13363 (13363)
Aircraft: CANADAIR CL-600 CRJ-700
(CRJ7)
More flights by this aircraft type
Origin: CYYZ Toronto/Pearson Intl
Canada
Destination: KJFK Kennedy Intl
United States
More flights between these airports :: More routes between these airports
Route: KEPTA2 BMPAH AEVON EXTOL Q140 YODAA IGN IGN1
File this flight plan on PilotEdge
Remarks: PBN / D1 NAV / RNVD1E2A1 DOF / 180328 REG / N921SB EET / KZOB0010 KZBW0021 KZNY0043 CODE / E9EFTF OPR / ENY PER / D RMK / TCAS SIMBRIEF
Altitude:
(Current/Filed)
33,000ft
Speed:
(Current/Filed)
445kts
Departed: 28-Mar-18 03:50 AM
Arrived: 28-Mar-18 04:52 AM
Distance/Time
Traveled:
317nm/1:02
Distance/Time
To Go:
Arrived

Flight Plot

Page will automatically refresh every two minutes.

Flight plan parsing failed; only flown route is shown


Map Options




Map Legend


Flown Route
Filed Route
Departure Airport
Arrival Airport
Navaid (VOR, NDB)
Fix

Horizontal Profiles

Position Reports

Time Latitude Longitude Heading Altitude Ground
Speed
28-Mar-18 03:14 43.687095 -79.622923 90 576ft 0kts
28-Mar-18 03:15 43.687095 -79.622923 90 576ft 0kts
28-Mar-18 03:16 43.687095 -79.622923 90 576ft 0kts
28-Mar-18 03:17 43.687095 -79.622923 90 576ft 0kts
28-Mar-18 03:18 43.687095 -79.622923 90 576ft 0kts
28-Mar-18 03:19 43.687095 -79.622923 90 576ft 0kts
28-Mar-18 03:20 43.687095 -79.622923 90 576ft 0kts
28-Mar-18 03:21 43.687095 -79.622923 90 576ft 0kts
28-Mar-18 03:22 43.687095 -79.622923 90 576ft 0kts
28-Mar-18 03:23 43.687095 -79.622923 90 576ft 0kts
28-Mar-18 03:24 43.687095 -79.622923 90 576ft 0kts
28-Mar-18 03:25 43.687095 -79.622923 90 576ft 0kts
28-Mar-18 03:26 43.687095 -79.622923 90 576ft 0kts
28-Mar-18 03:27 43.687095 -79.622923 90 576ft 0kts
28-Mar-18 03:28 43.687095 -79.622923 90 576ft 0kts
28-Mar-18 03:29 43.687095 -79.622923 90 576ft 0kts
28-Mar-18 03:30 43.687095 -79.622923 90 576ft 0kts
28-Mar-18 03:31 43.687146 -79.623444 114 576ft 2kts
28-Mar-18 03:32 43.687337 -79.623418 234 576ft 0kts
28-Mar-18 03:33 43.687337 -79.623419 234 576ft 0kts
28-Mar-18 03:34 43.687336 -79.623420 234 576ft 0kts
28-Mar-18 03:35 43.687335 -79.623422 234 576ft 0kts
28-Mar-18 03:36 43.687334 -79.623424 234 576ft 0kts
28-Mar-18 03:37 43.687070 -79.623938 234 576ft 10kts
28-Mar-18 03:38 43.684915 -79.626655 227 576ft 7kts
28-Mar-18 03:39 43.682834 -79.626379 136 576ft 17kts
28-Mar-18 03:40 43.679496 -79.622100 137 576ft 12kts
28-Mar-18 03:41 43.676005 -79.618225 136 576ft 17kts
28-Mar-18 03:42 43.672869 -79.614188 164 576ft 9kts
28-Mar-18 03:43 43.670307 -79.617260 226 576ft 19kts
28-Mar-18 03:44 43.667299 -79.621610 225 576ft 16kts
28-Mar-18 03:45 43.664686 -79.622685 225 576ft 6kts
28-Mar-18 03:46 43.662465 -79.625016 155 576ft 7kts
28-Mar-18 03:47 43.661740 -79.624341 134 576ft 0kts
28-Mar-18 03:48 43.661905 -79.622168 45 576ft 29kts
28-Mar-18 03:49 43.684184 -79.590253 45 1582ft 142kts
28-Mar-18 03:50 43.706975 -79.549052 53 2344ft 150kts
28-Mar-18 03:51 43.700635 -79.492141 123 3377ft 175kts
28-Mar-18 03:52 43.667611 -79.428341 101 5635ft 212kts
28-Mar-18 03:53 43.634971 -79.349178 122 7328ft 267kts
28-Mar-18 03:54 43.576235 -79.281026 143 9447ft 284kts
28-Mar-18 03:55 43.512450 -79.209410 145 11593ft 305kts
28-Mar-18 03:56 43.452348 -79.142178 146 13315ft 323kts
28-Mar-18 03:57 43.407144 -79.020394 112 14380ft 382kts
28-Mar-18 03:58 43.364948 -78.882826 117 16242ft 399kts
28-Mar-18 03:59 43.320373 -78.740102 117 18114ft 414kts
28-Mar-18 04:00 43.273334 -78.591933 117 19871ft 431kts
28-Mar-18 04:01 43.224799 -78.438515 118 21545ft 447kts
28-Mar-18 04:02 43.169678 -78.284098 133 23080ft 451kts
28-Mar-18 04:03 43.085214 -78.154991 137 24541ft 464kts
28-Mar-18 04:04 43.003779 -78.014595 137 25999ft 477kts
28-Mar-18 04:05 42.919801 -77.873520 131 28001ft 475kts
28-Mar-18 04:06 42.881601 -77.730040 101 28998ft 500kts
28-Mar-18 04:07 42.843016 -77.517118 112 30458ft 495kts
28-Mar-18 04:08 42.806446 -77.335325 107 31637ft 496kts
28-Mar-18 04:09 42.769091 -77.155128 109 32587ft 495kts
28-Mar-18 04:10 42.731800 -76.973489 108 33060ft 508kts
28-Mar-18 04:11 42.698803 -76.815633 108 33067ft 531kts
28-Mar-18 04:12 42.656451 -76.618893 112 33070ft 545kts
28-Mar-18 04:13 42.580310 -76.449902 131 33073ft 519kts
28-Mar-18 04:14 42.493484 -76.250628 126 33074ft 529kts
28-Mar-18 04:15 42.427276 -76.110115 126 33068ft 535kts
28-Mar-18 04:16 42.349699 -75.937314 125 33058ft 540kts
28-Mar-18 04:17 42.269909 -75.764006 125 33057ft 544kts
28-Mar-18 04:18 42.189998 -75.590864 126 33065ft 544kts
28-Mar-18 04:19 42.109938 -75.417560 126 33079ft 543kts
28-Mar-18 04:20 42.043335 -75.259228 107 33083ft 545kts
28-Mar-18 04:21 42.003258 -75.078241 112 33099ft 540kts
28-Mar-18 04:22 41.950694 -74.889486 109 33106ft 537kts
28-Mar-18 04:23 41.901881 -74.701010 110 33111ft 533kts
28-Mar-18 04:24 41.851583 -74.514620 110 33114ft 531kts
28-Mar-18 04:25 41.802305 -74.327626 110 32848ft 536kts
28-Mar-18 04:26 41.749523 -74.141796 119 30976ft 527kts
28-Mar-18 04:27 41.653324 -74.006303 158 28484ft 488kts
28-Mar-18 04:28 41.530860 -73.982960 204 25986ft 415kts
28-Mar-18 04:29 41.439314 -74.055871 223 23397ft 369kts
28-Mar-18 04:30 41.342107 -74.102533 201 20606ft 375kts
28-Mar-18 04:31 41.265561 -74.165721 222 20134ft 288kts
28-Mar-18 04:32 41.204293 -74.216846 218 20134ft 237kts
28-Mar-18 04:33 41.137225 -74.253120 210 19264ft 284kts
28-Mar-18 04:34 41.063072 -74.291078 209 19156ft 295kts
28-Mar-18 04:35 40.977029 -74.267801 144 19164ft 380kts
28-Mar-18 04:36 40.919706 -74.141464 124 19164ft 413kts
28-Mar-18 04:37 40.853856 -74.013318 126 19165ft 431kts
28-Mar-18 04:38 40.788555 -73.878192 125 19128ft 424kts
28-Mar-18 04:39 40.725421 -73.759421 115 16817ft 376kts
28-Mar-18 04:40 40.689614 -73.638892 111 13801ft 337kts
28-Mar-18 04:41 40.654581 -73.528770 119 10230ft 315kts
28-Mar-18 04:42 40.612187 -73.432863 121 7002ft 288kts
28-Mar-18 04:43 40.559392 -73.376059 194 4537ft 231kts
28-Mar-18 04:44 40.518925 -73.428803 260 2998ft 194kts
28-Mar-18 04:45 40.525783 -73.486499 271 3002ft 154kts
28-Mar-18 04:46 40.546125 -73.542356 301 2803ft 185kts
28-Mar-18 04:47 40.571557 -73.599926 294 2036ft 169kts
28-Mar-18 04:48 40.593383 -73.648913 298 1901ft 155kts
28-Mar-18 04:49 40.618028 -73.702774 298 1011ft 165kts
28-Mar-18 04:50 40.637454 -73.745339 298 316ft 128kts
28-Mar-18 04:51 40.653110 -73.779946 303 20ft 37kts
28-Mar-18 04:52 40.652989 -73.786302 237 20ft 18kts
28-Mar-18 04:53 40.650299 -73.789279 234 20ft 3kts
28-Mar-18 04:54 40.649771 -73.790848 241 20ft 7kts
28-Mar-18 04:55 40.649185 -73.792253 240 20ft 5kts
28-Mar-18 04:56 40.648095 -73.794754 238 20ft 0kts
28-Mar-18 04:57 40.648454 -73.795358 330 20ft 0kts
28-Mar-18 04:58 40.648507 -73.795399 329 20ft 0kts
28-Mar-18 04:59 40.648507 -73.795399 329 20ft 0kts
28-Mar-18 05:00 40.648507 -73.795399 329 20ft 0kts
28-Mar-18 05:01 40.648507 -73.795399 329 20ft 0kts
28-Mar-18 05:02 40.648507 -73.795399 329 20ft 0kts
28-Mar-18 05:03 40.648507 -73.795399 329 20ft 0kts

Navigation Log

Ident Type
Flight plan parsing failed, navigation log unavailable